createdAt,value
2019-05-03T00:01:19.387Z,163.77
2019-05-03T00:03:24.189Z,157.90
2019-05-03T00:05:38.763Z,154.03
2019-05-03T00:07:43.761Z,154.90
2019-05-03T00:09:48.122Z,154.03
2019-05-03T00:11:52.865Z,147.20
2019-05-03T00:13:57.951Z,136.03
2019-05-03T00:16:12.125Z,139.30
2019-05-03T00:18:18.785Z,138.13
2019-05-03T00:20:26.321Z,134.00
2019-05-03T00:22:32.372Z,130.90
2019-05-03T00:24:36.796Z,126.20
2019-05-03T00:26:42.334Z,122.53
2019-05-03T00:28:47.094Z,121.97
2019-05-03T00:30:51.834Z,121.97
2019-05-03T00:32:56.729Z,121.40
2019-05-03T00:35:04.233Z,121.57
2019-05-03T00:37:13.923Z,115.43
2019-05-03T00:39:32.468Z,111.23
2019-05-03T00:41:36.769Z,106.63
2019-05-03T00:43:42.367Z,104.27
2019-05-03T00:45:47.162Z,99.37
2019-05-03T00:47:52.760Z,107.03
2019-05-03T00:49:57.302Z,98.43
2019-05-03T00:52:02.332Z,98.47
2019-05-03T00:54:08.988Z,99.63
2019-05-03T00:56:15.865Z,96.10
2019-05-03T00:58:23.649Z,86.93
2019-05-03T01:00:28.271Z,87.00
2019-05-03T01:02:32.623Z,88.20
2019-05-03T01:04:37.130Z,84.50
2019-05-03T01:06:42.329Z,83.37
2019-05-03T01:08:46.825Z,80.27
2019-05-03T01:10:51.850Z,79.47
2019-05-03T01:12:56.408Z,77.60
2019-05-03T01:15:02.637Z,76.67
2019-05-03T01:17:08.231Z,72.97
2019-05-03T01:19:15.138Z,73.20
2019-05-03T01:21:24.491Z,68.83
2019-05-03T01:23:28.762Z,72.73
2019-05-03T01:25:35.549Z,71.43
2019-05-03T01:27:39.521Z,68.30
2019-05-03T01:29:43.858Z,65.63
2019-05-03T01:31:48.574Z,63.50
2019-05-03T01:33:53.012Z,64.50
2019-05-03T01:35:57.620Z,63.87
2019-05-03T01:38:02.682Z,63.53
2019-05-03T01:40:09.886Z,61.43
2019-05-03T01:42:16.074Z,55.97
2019-05-03T01:44:22.015Z,58.43
2019-05-03T01:46:27.894Z,55.50
2019-05-03T01:48:52.217Z,54.20
2019-05-03T01:51:23.649Z,55.87
2019-05-03T01:53:29.297Z,52.27
2019-05-03T01:55:52.657Z,49.77
2019-05-03T01:57:57.560Z,50.07
2019-05-03T02:00:02.935Z,52.30
2019-05-03T02:02:25.437Z,48.33
2019-05-03T02:04:37.857Z,47.83
2019-05-03T02:06:44.261Z,47.23
2019-05-03T02:08:52.178Z,46.37
2019-05-03T02:10:59.066Z,45.67
2019-05-03T02:13:03.509Z,44.73
2019-05-03T02:15:12.574Z,44.73
2019-05-03T02:17:22.562Z,46.20
2019-05-03T02:19:26.773Z,42.50
2019-05-03T02:21:32.217Z,40.90
2019-05-03T02:23:36.901Z,41.57
2019-05-03T02:25:41.865Z,42.20
2019-05-03T02:27:46.861Z,37.77
2019-05-03T02:29:52.432Z,39.20
2019-05-03T02:31:57.308Z,36.87
2019-05-03T02:34:03.520Z,37.10
2019-05-03T02:36:13.603Z,36.93
2019-05-03T02:38:27.784Z,35.30
2019-05-03T02:40:33.924Z,33.13
2019-05-03T02:42:38.461Z,34.10
2019-05-03T02:44:42.836Z,34.67
2019-05-03T02:47:05.793Z,31.57
2019-05-03T02:49:28.351Z,33.00
2019-05-03T02:51:35.820Z,30.40
2019-05-03T02:53:39.222Z,31.40
2019-05-03T02:55:45.520Z,30.60
2019-05-03T02:57:49.766Z,28.40
2019-05-03T02:59:55.008Z,28.40
2019-05-03T03:01:59.225Z,28.40
2019-05-03T03:04:05.283Z,29.47
2019-05-03T03:06:11.647Z,26.73
2019-05-03T03:08:19.095Z,27.40
2019-05-03T03:10:26.502Z,26.33
2019-05-03T03:12:35.391Z,25.23
2019-05-03T03:14:38.152Z,25.40
2019-05-03T03:16:45.524Z,24.60
2019-05-03T03:18:49.432Z,24.83
2019-05-03T03:20:55.356Z,24.00
2019-05-03T03:22:59.632Z,24.77
2019-05-03T03:25:06.153Z,24.13
2019-05-03T03:27:12.657Z,23.30
2019-05-03T03:29:18.650Z,23.33
2019-05-03T03:31:31.600Z,22.17
2019-05-03T03:33:40.321Z,21.77
2019-05-03T03:35:48.945Z,21.30
2019-05-03T03:37:51.480Z,20.87
2019-05-03T03:39:56.264Z,20.90
2019-05-03T03:42:00.985Z,19.80
2019-05-03T03:44:05.917Z,20.77
2019-05-03T03:46:15.869Z,19.13
2019-05-03T03:48:26.604Z,18.10
2019-05-03T03:50:31.725Z,20.10
2019-05-03T03:52:36.166Z,17.70
2019-05-03T03:54:41.002Z,20.10
2019-05-03T03:56:56.074Z,19.13
2019-05-03T03:58:51.100Z,17.90
2019-05-03T04:00:55.662Z,16.80
2019-05-03T04:03:00.073Z,17.30
2019-05-03T04:05:05.663Z,17.20
2019-05-03T04:07:15.494Z,16.83
2019-05-03T04:09:31.060Z,12.77
2019-05-03T04:11:35.297Z,13.03
2019-05-03T04:13:41.874Z,17.90
2019-05-03T04:16:09.298Z,10.43
2019-05-03T04:18:27.785Z,10.10
2019-05-03T04:20:35.977Z,11.03
2019-05-03T04:22:41.438Z,10.00
2019-05-03T04:24:46.204Z,10.27
2019-05-03T04:26:56.231Z,9.57
2019-05-03T04:29:00.463Z,10.93
2019-05-03T04:31:06.456Z,10.03
2019-05-03T04:33:23.344Z,12.40
2019-05-03T04:35:27.743Z,10.70
2019-05-03T04:37:35.907Z,9.37
2019-05-03T04:39:40.099Z,8.57
2019-05-03T04:41:45.356Z,9.37
2019-05-03T04:43:50.192Z,8.90
2019-05-03T04:46:12.173Z,8.53
2019-05-03T04:48:25.404Z,8.10
2019-05-03T04:50:30.351Z,8.60
2019-05-03T04:52:36.172Z,9.50
2019-05-03T04:54:51.081Z,7.70
2019-05-03T04:56:56.220Z,8.27
2019-05-03T04:59:00.617Z,7.53
2019-05-03T05:01:06.238Z,7.43
2019-05-03T05:03:15.086Z,7.20
2019-05-03T05:05:26.205Z,6.57
2019-05-03T05:07:30.595Z,6.80
2019-05-03T05:09:35.361Z,7.10
2019-05-03T05:11:39.677Z,6.77
2019-05-03T05:13:45.765Z,6.80
2019-05-03T05:15:50.812Z,6.40
2019-05-03T05:18:10.588Z,9.97
2019-05-03T05:20:26.142Z,6.73
2019-05-03T05:22:32.033Z,6.00
2019-05-03T05:24:36.354Z,8.13
2019-05-03T05:27:07.273Z,5.77
2019-05-03T05:29:17.830Z,12.00
2019-05-03T05:31:22.704Z,245.67
2019-05-03T05:33:29.941Z,345.23
2019-05-03T05:35:35.247Z,249.40
2019-05-03T05:37:39.601Z,218.87
2019-05-03T05:39:44.705Z,172.93
2019-05-03T05:41:49.504Z,432.93
2019-05-03T05:43:54.973Z,261.13
2019-05-03T05:45:59.348Z,204.33
2019-05-03T05:48:08.185Z,130.93
2019-05-03T05:50:25.367Z,122.57
2019-05-03T05:52:30.210Z,101.00
2019-05-03T05:54:35.213Z,102.63
2019-05-03T05:56:47.865Z,104.07
2019-05-03T05:58:59.415Z,118.17
2019-05-03T06:01:24.892Z,206.77
2019-05-03T06:03:28.984Z,340.63
2019-05-03T06:05:35.417Z,357.17
2019-05-03T06:07:47.115Z,431.60
2019-05-03T06:10:05.336Z,294.20
2019-05-03T06:12:26.702Z,269.53
2019-05-03T06:14:38.817Z,202.07
2019-05-03T06:17:06.372Z,174.00
2019-05-03T06:19:30.944Z,167.90
2019-05-03T06:21:54.824Z,167.40
2019-05-03T06:24:04.680Z,151.40
2019-05-03T06:26:28.189Z,140.73
2019-05-03T06:28:35.313Z,160.53
2019-05-03T06:31:04.879Z,112.60
2019-05-03T06:33:09.224Z,326.13
2019-05-03T06:35:24.263Z,321.83
2019-05-03T06:37:30.844Z,413.17
2019-05-03T06:39:35.303Z,302.87
2019-05-03T06:41:39.851Z,219.67
2019-05-03T06:43:45.004Z,171.73
2019-05-03T06:45:50.631Z,155.37
2019-05-03T06:47:55.292Z,129.80
2019-05-03T06:50:00.235Z,131.27
2019-05-03T06:52:05.967Z,692.23
2019-05-03T06:54:15.531Z,491.70
2019-05-03T06:56:29.077Z,681.03
2019-05-03T06:58:35.804Z,488.13
2019-05-03T07:01:00.594Z,284.80
2019-05-03T07:03:35.448Z,222.30
2019-05-03T07:05:57.377Z,205.63
2019-05-03T07:08:25.393Z,151.83
2019-05-03T07:10:35.283Z,153.30
2019-05-03T07:12:57.213Z,172.20
2019-05-03T07:15:10.211Z,140.90
2019-05-03T07:17:17.896Z,135.93
2019-05-03T07:19:29.192Z,92.87
2019-05-03T07:21:35.422Z,109.90
2019-05-03T07:23:39.975Z,95.73
2019-05-03T07:25:44.820Z,88.23
2019-05-03T07:27:50.502Z,114.37
2019-05-03T07:30:06.571Z,94.93
2019-05-03T07:32:24.806Z,81.10
2019-05-03T07:34:34.934Z,82.43
2019-05-03T07:36:44.681Z,76.00
2019-05-03T07:38:51.952Z,191.03
2019-05-03T07:41:01.620Z,298.50
2019-05-03T07:43:20.010Z,317.60
2019-05-03T07:45:25.602Z,323.90
2019-05-03T07:47:30.865Z,204.80
2019-05-03T07:49:35.675Z,223.67
2019-05-03T07:51:40.385Z,181.20
2019-05-03T07:53:45.224Z,175.47
2019-05-03T07:56:14.948Z,162.77
2019-05-03T07:58:25.187Z,121.47
2019-05-03T08:00:29.160Z,100.70
2019-05-03T08:02:35.815Z,111.03
2019-05-03T08:04:40.243Z,99.20
2019-05-03T08:06:46.271Z,93.03
2019-05-03T08:08:51.132Z,96.80
2019-05-03T08:10:55.880Z,98.30
2019-05-03T08:13:04.611Z,93.83
2019-05-03T08:15:12.024Z,81.10
2019-05-03T08:17:16.716Z,90.93
2019-05-03T08:19:27.031Z,194.30
2019-05-03T08:21:30.773Z,346.27
2019-05-03T08:23:37.702Z,294.13
2019-05-03T08:25:44.542Z,281.83
2019-05-03T08:27:48.589Z,297.20
2019-05-03T08:29:53.196Z,180.20
2019-05-03T08:32:17.665Z,173.33
2019-05-03T08:34:45.287Z,138.87
2019-05-03T08:36:58.098Z,107.97
2019-05-03T08:39:05.348Z,100.90
2019-05-03T08:41:14.494Z,234.83
2019-05-03T08:43:22.879Z,303.73
2019-05-03T08:45:30.470Z,458.83
2019-05-03T08:47:34.766Z,245.03
2019-05-03T08:49:39.306Z,214.07
2019-05-03T08:51:44.408Z,170.70
2019-05-03T08:53:48.855Z,161.67
2019-05-03T08:55:55.216Z,125.37
2019-05-03T08:57:59.065Z,107.87
2019-05-03T09:00:05.287Z,113.03
2019-05-03T09:02:17.310Z,93.27
2019-05-03T09:04:36.280Z,105.20
2019-05-03T09:06:30.681Z,96.20
2019-05-03T09:08:35.533Z,86.87
2019-05-03T09:11:02.491Z,93.97
2019-05-03T09:13:14.838Z,77.00
2019-05-03T09:15:24.618Z,68.80
2019-05-03T09:17:30.182Z,73.30
2019-05-03T09:19:34.820Z,69.87
2019-05-03T09:21:39.086Z,54.77
2019-05-03T09:23:45.066Z,60.87
2019-05-03T09:25:49.612Z,64.17
2019-05-03T09:27:55.248Z,52.80
2019-05-03T09:29:59.864Z,59.37
2019-05-03T09:32:05.777Z,52.07
2019-05-03T09:34:12.328Z,355.70
2019-05-03T09:36:17.623Z,442.70
2019-05-03T09:38:25.726Z,437.63
2019-05-03T09:40:30.249Z,293.20
2019-05-03T09:42:35.285Z,231.93
2019-05-03T09:44:40.110Z,158.10
2019-05-03T09:46:44.727Z,127.43
2019-05-03T09:48:49.453Z,135.07
2019-05-03T09:50:55.645Z,97.30
2019-05-03T09:53:02.916Z,100.57
2019-05-03T09:55:14.534Z,98.87
2019-05-03T09:57:24.744Z,83.40
2019-05-03T09:59:29.871Z,88.50
2019-05-03T10:01:34.735Z,60.63
2019-05-03T10:03:40.130Z,58.50
2019-05-03T10:05:45.886Z,58.40
2019-05-03T10:07:50.702Z,54.63
2019-05-03T10:09:55.534Z,53.47
2019-05-03T10:12:05.513Z,52.17
2019-05-03T10:14:15.579Z,48.43
2019-05-03T10:16:30.667Z,44.47
2019-05-03T10:18:35.526Z,48.47
2019-05-03T10:20:40.653Z,123.47
2019-05-03T10:22:45.318Z,49.00
2019-05-03T10:24:54.915Z,254.20
2019-05-03T10:27:01.420Z,45.40
2019-05-03T10:29:06.599Z,32.07
2019-05-03T10:31:13.599Z,36.07
2019-05-03T10:33:26.108Z,39.30
2019-05-03T10:35:31.217Z,35.90
2019-05-03T10:37:37.883Z,26.50
2019-05-03T10:39:42.457Z,24.40
2019-05-03T10:41:47.168Z,27.27
2019-05-03T10:43:51.519Z,424.50
2019-05-03T10:45:56.476Z,37.33
2019-05-03T10:48:00.881Z,32.13
2019-05-03T10:50:07.697Z,28.77
2019-05-03T10:52:17.773Z,25.73
2019-05-03T10:54:23.816Z,21.27
2019-05-03T10:56:47.617Z,212.73
2019-05-03T10:59:07.089Z,24.10
2019-05-03T11:01:15.898Z,19.50
2019-05-03T11:03:23.753Z,158.90
2019-05-03T11:05:28.397Z,102.27
2019-05-03T11:07:34.575Z,513.27
2019-05-03T11:09:48.576Z,43.33
2019-05-03T11:11:45.410Z,17.80
2019-05-03T11:13:49.751Z,308.60
2019-05-03T11:15:54.935Z,227.90
2019-05-03T11:17:59.402Z,24.30
2019-05-03T11:20:05.297Z,13.10
2019-05-03T11:22:14.620Z,609.83
2019-05-03T11:24:27.163Z,334.80
2019-05-03T11:26:29.586Z,234.73
2019-05-03T11:28:35.352Z,172.20
2019-05-03T11:30:52.271Z,137.40
2019-05-03T11:32:55.607Z,112.07
2019-05-03T11:35:24.735Z,88.80
2019-05-03T11:37:46.866Z,64.60
2019-05-03T11:39:52.181Z,74.40
2019-05-03T11:41:58.305Z,51.43
2019-05-03T11:44:21.687Z,55.37
2019-05-03T11:46:29.020Z,51.07
2019-05-03T11:48:34.854Z,48.33
2019-05-03T11:50:40.157Z,39.17
2019-05-03T11:52:47.108Z,34.57
2019-05-03T11:54:50.547Z,40.60
2019-05-03T11:56:55.632Z,34.33
2019-05-03T11:59:00.073Z,29.27
2019-05-03T12:01:25.654Z,33.23
2019-05-03T12:03:35.487Z,27.60
2019-05-03T12:05:43.011Z,480.10
2019-05-03T12:07:47.551Z,597.40
2019-05-03T12:09:54.586Z,842.23
2019-05-03T12:11:59.775Z,326.30
2019-05-03T12:14:15.194Z,191.17
2019-05-03T12:17:08.618Z,188.47
2019-05-03T12:18:47.886Z,126.10
2019-05-03T12:20:41.206Z,179.67
2019-05-03T12:22:48.977Z,610.50
2019-05-03T12:24:55.718Z,491.17
2019-05-03T12:27:04.652Z,324.03
2019-05-03T12:29:12.413Z,231.10
2019-05-03T12:31:40.196Z,213.97
2019-05-03T12:33:41.334Z,163.97
2019-05-03T12:35:46.610Z,156.87
2019-05-03T12:37:51.642Z,144.07
2019-05-03T12:39:58.095Z,121.90
2019-05-03T12:42:05.663Z,133.47
2019-05-03T12:44:15.225Z,100.67
2019-05-03T12:46:28.754Z,95.13
2019-05-03T12:48:35.279Z,101.83
2019-05-03T12:50:39.551Z,92.13
2019-05-03T12:52:50.476Z,296.03
2019-05-03T12:54:50.282Z,355.10
2019-05-03T12:56:56.069Z,497.57
2019-05-03T12:59:06.760Z,340.90
2019-05-03T13:01:25.102Z,267.27
2019-05-03T13:03:34.387Z,218.93
2019-05-03T13:05:38.676Z,179.40
2019-05-03T13:07:49.077Z,192.40
2019-05-03T13:09:54.482Z,161.17
2019-05-03T13:11:59.420Z,135.07
2019-05-03T13:14:04.919Z,126.63
2019-05-03T13:16:15.304Z,126.80
2019-05-03T13:18:25.402Z,115.10
2019-05-03T13:20:31.943Z,105.67
2019-05-03T13:22:36.657Z,84.33
2019-05-03T13:24:41.620Z,69.00
2019-05-03T13:26:46.667Z,77.10
2019-05-03T13:28:50.994Z,146.23
2019-05-03T13:30:57.464Z,109.20
2019-05-03T13:33:02.969Z,278.43
2019-05-03T13:35:09.763Z,374.73
2019-05-03T13:37:19.805Z,232.53
2019-05-03T13:39:29.133Z,170.60
2019-05-03T13:41:34.919Z,145.03
2019-05-03T13:43:39.412Z,168.73
2019-05-03T13:45:46.500Z,279.47
2019-05-03T13:47:52.028Z,144.57
2019-05-03T13:49:58.238Z,580.07
2019-05-03T13:52:05.103Z,357.03
2019-05-03T13:54:11.725Z,222.33
2019-05-03T13:56:19.099Z,76.17
2019-05-03T13:58:36.432Z,311.23
2019-05-03T14:00:36.502Z,266.83
2019-05-03T14:02:41.076Z,187.03
2019-05-03T14:04:52.810Z,245.70
2019-05-03T14:06:58.192Z,191.80
2019-05-03T14:09:12.499Z,178.63
2019-05-03T14:11:21.975Z,180.30
2019-05-03T14:13:30.140Z,136.33
2019-05-03T14:15:38.063Z,107.87
2019-05-03T14:17:45.427Z,98.43
2019-05-03T14:20:01.942Z,102.83
2019-05-03T14:22:24.874Z,73.97
2019-05-03T14:24:35.154Z,81.10
2019-05-03T14:26:46.719Z,69.27
2019-05-03T14:29:05.541Z,52.97
2019-05-03T14:31:21.466Z,345.73
2019-05-03T14:33:30.554Z,93.10
2019-05-03T14:35:38.313Z,68.50
2019-05-03T14:37:45.883Z,771.43
2019-05-03T14:39:51.966Z,292.43
2019-05-03T14:41:57.588Z,592.67
2019-05-03T14:44:04.935Z,123.03
2019-05-03T14:46:29.135Z,45.33
2019-05-03T14:48:28.403Z,38.43
2019-05-03T14:50:35.069Z,278.70
2019-05-03T14:52:40.352Z,89.43
2019-05-03T14:54:46.479Z,38.23
2019-05-03T14:57:21.368Z,30.87
2019-05-03T14:59:55.110Z,228.67
2019-05-03T15:02:24.515Z,30.17
2019-05-03T15:04:30.721Z,30.10
2019-05-03T15:06:37.201Z,21.70
2019-05-03T15:08:42.377Z,144.77
2019-05-03T15:10:47.126Z,115.30
2019-05-03T15:12:51.816Z,30.90
2019-05-03T15:14:59.932Z,22.70
2019-05-03T15:17:06.190Z,22.27
2019-05-03T15:19:14.803Z,23.13
2019-05-03T15:21:25.228Z,20.47
2019-05-03T15:23:29.532Z,19.20
2019-05-03T15:25:34.570Z,17.70
2019-05-03T15:27:39.936Z,14.27
2019-05-03T15:29:44.843Z,13.83
2019-05-03T15:31:50.822Z,16.73
2019-05-03T15:33:55.694Z,722.00
2019-05-03T15:36:00.018Z,167.57
2019-05-03T15:38:08.383Z,293.73
2019-05-03T15:40:15.448Z,289.43
2019-05-03T15:42:23.136Z,164.57
2019-05-03T15:44:58.545Z,139.70
2019-05-03T15:47:14.835Z,103.03
2019-05-03T15:49:38.202Z,99.13
2019-05-03T15:51:44.488Z,71.47
2019-05-03T15:53:48.819Z,66.70
2019-05-03T15:55:55.105Z,76.40
2019-05-03T15:58:05.712Z,65.60
2019-05-03T16:00:12.474Z,59.33
2019-05-03T16:02:17.909Z,57.10
2019-05-03T16:04:27.571Z,48.60
2019-05-03T16:06:32.314Z,50.17
2019-05-03T16:08:36.641Z,34.70
2019-05-03T16:10:41.191Z,33.83
2019-05-03T16:12:48.784Z,45.83
2019-05-03T16:14:55.081Z,43.63
2019-05-03T16:16:58.938Z,28.90
2019-05-03T16:19:05.280Z,28.73
2019-05-03T16:21:14.641Z,27.57
2019-05-03T16:23:25.031Z,23.93
2019-05-03T16:25:29.644Z,20.47
2019-05-03T16:27:52.735Z,22.20
2019-05-03T16:29:57.759Z,17.00
2019-05-03T16:32:02.786Z,12.50
2019-05-03T16:34:08.935Z,17.40
2019-05-03T16:36:15.907Z,15.13
2019-05-03T16:38:27.316Z,15.63
2019-05-03T16:40:31.994Z,12.20
2019-05-03T16:42:36.218Z,10.07
2019-05-03T16:44:40.830Z,8.33
2019-05-03T16:46:45.059Z,13.00
2019-05-03T16:48:49.244Z,15.50
2019-05-03T16:50:54.512Z,9.27
2019-05-03T16:52:58.958Z,12.73
2019-05-03T16:55:03.429Z,10.60
2019-05-03T16:57:10.850Z,9.03
2019-05-03T16:59:24.716Z,10.10
2019-05-03T17:01:29.109Z,8.50
2019-05-03T17:03:50.064Z,6.10
2019-05-03T17:06:14.827Z,12.77
2019-05-03T17:08:45.949Z,7.67
2019-05-03T17:10:51.481Z,13.30
2019-05-03T17:12:56.972Z,9.03
2019-05-03T17:15:02.184Z,5.60
2019-05-03T17:17:08.723Z,6.10
2019-05-03T17:19:17.133Z,7.40
2019-05-03T17:21:25.612Z,5.17
2019-05-03T17:23:30.251Z,4.70
2019-05-03T17:25:35.158Z,9.80
2019-05-03T17:27:39.761Z,4.53
2019-05-03T17:29:44.548Z,4.60
2019-05-03T17:31:48.941Z,4.40
2019-05-03T17:33:56.225Z,5.03
2019-05-03T17:36:01.174Z,4.03
2019-05-03T17:38:06.481Z,4.47
2019-05-03T17:40:26.459Z,5.13
2019-05-03T17:42:48.447Z,4.47
2019-05-03T17:44:54.523Z,4.30
2019-05-03T17:46:58.945Z,3.93
2019-05-03T17:49:05.162Z,4.63
2019-05-03T17:51:15.012Z,4.07
2019-05-03T17:53:55.081Z,4.30
2019-05-03T17:56:15.151Z,4.10
2019-05-03T17:58:29.740Z,3.13
2019-05-03T18:00:52.676Z,3.07
2019-05-03T18:02:57.565Z,3.70
2019-05-03T18:05:25.080Z,7.17
2019-05-03T18:07:37.376Z,4.00
2019-05-03T18:09:42.072Z,8.87
2019-05-03T18:11:50.315Z,3.97
2019-05-03T18:13:55.165Z,2.77
2019-05-03T18:16:00.686Z,7.33
2019-05-03T18:18:06.201Z,3.40
2019-05-03T18:20:15.117Z,5.73
2019-05-03T18:22:24.564Z,2.87
2019-05-03T18:24:28.836Z,3.10
2019-05-03T18:26:35.390Z,4.73
2019-05-03T18:28:39.565Z,5.57
2019-05-03T18:30:46.754Z,5.10
2019-05-03T18:32:51.594Z,2.83
2019-05-03T18:34:56.364Z,3.40
2019-05-03T18:37:04.979Z,5.67
2019-05-03T18:39:11.880Z,5.63
2019-05-03T18:41:18.335Z,2.80
2019-05-03T18:43:38.451Z,3.63
2019-05-03T18:46:04.973Z,2.90
2019-05-03T18:48:14.464Z,3.40
2019-05-03T18:50:20.087Z,3.03
2019-05-03T18:52:26.827Z,3.30
2019-05-03T18:54:31.846Z,3.37
2019-05-03T18:56:35.987Z,5.10
2019-05-03T18:58:40.857Z,2.53
2019-05-03T19:00:45.365Z,4.07
2019-05-03T19:02:50.042Z,6.43
2019-05-03T19:04:55.682Z,7.57
2019-05-03T19:07:04.330Z,3.90
2019-05-03T19:09:35.455Z,3.10
2019-05-03T19:12:04.876Z,3.23
2019-05-03T19:14:12.622Z,5.20
2019-05-03T19:16:35.122Z,3.83
2019-05-03T19:18:39.959Z,4.00
2019-05-03T19:20:45.568Z,3.63
2019-05-03T19:22:50.157Z,4.27
2019-05-03T19:24:54.401Z,3.93
2019-05-03T19:26:58.574Z,3.77
2019-05-03T19:29:04.427Z,7.90
2019-05-03T19:31:10.068Z,3.13
2019-05-03T19:33:19.146Z,3.90
2019-05-03T19:35:27.653Z,9.80
2019-05-03T19:37:31.657Z,4.07
2019-05-03T19:39:36.157Z,6.43
2019-05-03T19:41:40.792Z,3.87
2019-05-03T19:43:44.991Z,4.70
2019-05-03T19:45:49.219Z,3.80
2019-05-03T19:47:55.220Z,4.80
2019-05-03T19:49:59.544Z,6.87
2019-05-03T19:52:05.218Z,5.00
2019-05-03T19:54:14.649Z,3.93
2019-05-03T19:56:26.705Z,7.07
2019-05-03T19:58:30.874Z,5.63
2019-05-03T20:00:46.230Z,6.80
2019-05-03T20:02:57.380Z,4.10
2019-05-03T20:05:21.487Z,4.00
2019-05-03T20:07:38.295Z,4.63
2019-05-03T20:09:44.608Z,3.47
2019-05-03T20:11:49.319Z,4.57
2019-05-03T20:13:55.212Z,3.47
2019-05-03T20:15:59.783Z,4.77
2019-05-03T20:18:08.143Z,3.70
2019-05-03T20:20:15.460Z,3.43
2019-05-03T20:22:25.483Z,4.90
2019-05-03T20:24:32.003Z,3.73
2019-05-03T20:26:37.550Z,3.63
2019-05-03T20:28:42.244Z,4.70
2019-05-03T20:30:46.512Z,4.30
2019-05-03T20:32:51.046Z,3.10
2019-05-03T20:34:56.966Z,7.83
2019-05-03T20:37:05.178Z,3.60
2019-05-03T20:39:12.427Z,4.30
2019-05-03T20:41:21.409Z,3.53
2019-05-03T20:43:44.523Z,4.00
2019-05-03T20:46:05.066Z,3.50
2019-05-03T20:48:14.515Z,2.90
2019-05-03T20:50:19.890Z,3.33
2019-05-03T20:52:27.450Z,5.50
2019-05-03T20:54:31.762Z,4.53
2019-05-03T20:56:36.505Z,3.53
2019-05-03T20:58:40.963Z,3.90
2019-05-03T21:00:45.452Z,5.73
2019-05-03T21:02:53.472Z,5.10
2019-05-03T21:04:56.211Z,4.30
2019-05-03T21:07:00.594Z,3.90
2019-05-03T21:09:10.406Z,5.77
2019-05-03T21:11:17.413Z,4.00
2019-05-03T21:13:26.458Z,7.80
2019-05-03T21:15:50.514Z,4.30
2019-05-03T21:18:31.193Z,3.83
2019-05-03T21:20:52.442Z,5.17
2019-05-03T21:22:57.045Z,4.20
2019-05-03T21:25:14.128Z,6.23
2019-05-03T21:27:24.674Z,5.13
2019-05-03T21:29:29.328Z,4.63
2019-05-03T21:31:35.336Z,4.53
2019-05-03T21:33:39.910Z,4.97
2019-05-03T21:35:45.203Z,5.00
2019-05-03T21:37:50.175Z,4.70
2019-05-03T21:39:55.186Z,6.37
2019-05-03T21:41:59.700Z,5.70
2019-05-03T21:44:05.237Z,6.40
2019-05-03T21:46:19.798Z,4.90
2019-05-03T21:48:31.918Z,5.50
2019-05-03T21:50:36.412Z,11.60
2019-05-03T21:52:40.975Z,4.47
2019-05-03T21:54:45.964Z,7.23
2019-05-03T21:56:50.872Z,5.37
2019-05-03T21:58:55.922Z,6.00
2019-05-03T22:01:05.069Z,4.40
2019-05-03T22:03:25.087Z,5.83
2019-05-03T22:05:27.282Z,4.70
2019-05-03T22:07:34.912Z,5.23
2019-05-03T22:09:40.600Z,6.23
2019-05-03T22:11:46.532Z,8.00
2019-05-03T22:13:54.251Z,4.73
2019-05-03T22:16:11.847Z,5.27
2019-05-03T22:18:26.063Z,4.20
2019-05-03T22:20:39.694Z,4.03
2019-05-03T22:22:50.293Z,6.30
2019-05-03T22:24:57.409Z,5.10
2019-05-03T22:27:09.618Z,4.97
2019-05-03T22:29:25.453Z,5.50
2019-05-03T22:31:30.432Z,5.43
2019-05-03T22:33:35.003Z,5.30
2019-05-03T22:35:39.556Z,5.80
2019-05-03T22:37:44.667Z,5.40
2019-05-03T22:39:48.997Z,6.23
2019-05-03T22:41:53.288Z,5.07
2019-05-03T22:43:57.523Z,5.10
2019-05-03T22:46:01.781Z,5.43
2019-05-03T22:48:06.233Z,5.63
2019-05-03T22:50:14.870Z,6.73
2019-05-03T22:52:25.729Z,7.60
2019-05-03T22:54:30.410Z,7.83
2019-05-03T22:56:35.586Z,5.47
2019-05-03T22:58:40.099Z,5.40
2019-05-03T23:00:44.609Z,5.53
2019-05-03T23:02:49.099Z,7.77
2019-05-03T23:04:55.395Z,6.90
2019-05-03T23:06:59.907Z,5.57
2019-05-03T23:09:06.805Z,5.30
2019-05-03T23:11:13.214Z,4.63
2019-05-03T23:13:18.340Z,5.83
2019-05-03T23:15:24.390Z,5.13
2019-05-03T23:17:28.979Z,4.77
2019-05-03T23:19:34.904Z,8.00
2019-05-03T23:21:51.674Z,4.17
2019-05-03T23:23:55.890Z,4.67
2019-05-03T23:26:00.801Z,5.00
2019-05-03T23:28:07.550Z,7.20
2019-05-03T23:30:15.386Z,5.10
2019-05-03T23:32:24.458Z,5.03
2019-05-03T23:34:29.085Z,5.57
2019-05-03T23:36:36.242Z,4.57
2019-05-03T23:38:40.143Z,4.53
2019-05-03T23:40:44.969Z,4.50
2019-05-03T23:42:49.470Z,4.73
2019-05-03T23:44:53.651Z,4.70
2019-05-03T23:47:15.029Z,5.43
2019-05-03T23:49:27.350Z,508.73
2019-05-03T23:51:49.688Z,513.17
2019-05-03T23:53:55.023Z,565.17
2019-05-03T23:56:04.549Z,456.37
2019-05-03T23:58:12.658Z,544.97
